sensor_id;sensor_type;location;lat;lon;timestamp;P1;durP1;ratioP1;P2;durP2;ratioP2
29938;SDS011;16799;50.844;5.304;2022-12-18T00:00:42;62.07;;;29.37;;
29938;SDS011;16799;50.844;5.304;2022-12-18T00:03:08;79.60;;;34.67;;
29938;SDS011;16799;50.844;5.304;2022-12-18T00:05:35;53.73;;;26.40;;
29938;SDS011;16799;50.844;5.304;2022-12-18T00:08:01;68.90;;;30.77;;
29938;SDS011;16799;50.844;5.304;2022-12-18T00:10:27;81.17;;;33.93;;
29938;SDS011;16799;50.844;5.304;2022-12-18T00:12:53;78.30;;;34.30;;
29938;SDS011;16799;50.844;5.304;2022-12-18T00:15:19;81.37;;;35.37;;
29938;SDS011;16799;50.844;5.304;2022-12-18T00:17:45;81.47;;;34.70;;
29938;SDS011;16799;50.844;5.304;2022-12-18T00:20:11;73.10;;;30.10;;
29938;SDS011;16799;50.844;5.304;2022-12-18T00:22:37;84.03;;;31.73;;
29938;SDS011;16799;50.844;5.304;2022-12-18T00:25:02;75.03;;;31.80;;
29938;SDS011;16799;50.844;5.304;2022-12-18T00:27:28;69.63;;;31.00;;
29938;SDS011;16799;50.844;5.304;2022-12-18T00:29:54;86.87;;;31.37;;
29938;SDS011;16799;50.844;5.304;2022-12-18T00:32:20;59.03;;;28.63;;
29938;SDS011;16799;50.844;5.304;2022-12-18T00:34:45;71.57;;;28.17;;
29938;SDS011;16799;50.844;5.304;2022-12-18T00:37:11;62.40;;;30.20;;
29938;SDS011;16799;50.844;5.304;2022-12-18T00:39:37;55.83;;;29.77;;
29938;SDS011;16799;50.844;5.304;2022-12-18T00:42:02;82.60;;;28.23;;
29938;SDS011;16799;50.844;5.304;2022-12-18T00:44:46;75.13;;;27.67;;
29938;SDS011;16799;50.844;5.304;2022-12-18T00:47:12;63.10;;;27.03;;
29938;SDS011;16799;50.844;5.304;2022-12-18T00:49:38;72.33;;;28.70;;
29938;SDS011;16799;50.844;5.304;2022-12-18T00:52:03;61.27;;;27.40;;
29938;SDS011;16799;50.844;5.304;2022-12-18T00:54:29;61.43;;;25.50;;
29938;SDS011;16799;50.844;5.304;2022-12-18T00:56:55;65.00;;;29.73;;
29938;SDS011;16799;50.844;5.304;2022-12-18T00:59:20;83.77;;;34.17;;
29938;SDS011;16799;50.844;5.304;2022-12-18T01:01:46;71.37;;;30.80;;
29938;SDS011;16799;50.844;5.304;2022-12-18T01:04:12;60.83;;;28.70;;
29938;SDS011;16799;50.844;5.304;2022-12-18T01:06:38;74.80;;;28.97;;
29938;SDS011;16799;50.844;5.304;2022-12-18T01:09:04;66.67;;;30.60;;
29938;SDS011;16799;50.844;5.304;2022-12-18T01:11:30;84.20;;;29.83;;
29938;SDS011;16799;50.844;5.304;2022-12-18T01:13:56;56.37;;;29.03;;
29938;SDS011;16799;50.844;5.304;2022-12-18T01:16:21;67.57;;;28.80;;
29938;SDS011;16799;50.844;5.304;2022-12-18T01:18:50;62.90;;;28.30;;
29938;SDS011;16799;50.844;5.304;2022-12-18T01:21:18;55.80;;;27.30;;
29938;SDS011;16799;50.844;5.304;2022-12-18T01:23:44;67.37;;;29.57;;
29938;SDS011;16799;50.844;5.304;2022-12-18T01:26:12;69.17;;;33.37;;
29938;SDS011;16799;50.844;5.304;2022-12-18T01:28:39;63.87;;;26.67;;
29938;SDS011;16799;50.844;5.304;2022-12-18T01:31:16;72.23;;;26.37;;
29938;SDS011;16799;50.844;5.304;2022-12-18T01:33:42;60.23;;;26.37;;
29938;SDS011;16799;50.844;5.304;2022-12-18T01:36:08;65.37;;;27.50;;
29938;SDS011;16799;50.844;5.304;2022-12-18T01:38:52;64.93;;;25.10;;
29938;SDS011;16799;50.844;5.304;2022-12-18T01:41:19;59.93;;;25.03;;
29938;SDS011;16799;50.844;5.304;2022-12-18T01:43:54;57.10;;;28.03;;
29938;SDS011;16799;50.844;5.304;2022-12-18T01:46:24;65.27;;;28.43;;
29938;SDS011;16799;50.844;5.304;2022-12-18T01:48:58;49.80;;;24.83;;
29938;SDS011;16799;50.844;5.304;2022-12-18T01:51:26;63.27;;;26.67;;
29938;SDS011;16799;50.844;5.304;2022-12-18T01:53:54;71.63;;;26.70;;
29938;SDS011;16799;50.844;5.304;2022-12-18T01:56:20;61.63;;;27.17;;
29938;SDS011;16799;50.844;5.304;2022-12-18T01:58:52;62.37;;;27.97;;
29938;SDS011;16799;50.844;5.304;2022-12-18T02:01:20;52.53;;;27.20;;
29938;SDS011;16799;50.844;5.304;2022-12-18T02:03:49;78.50;;;30.97;;
29938;SDS011;16799;50.844;5.304;2022-12-18T02:06:19;53.50;;;25.57;;
29938;SDS011;16799;50.844;5.304;2022-12-18T02:09:19;54.50;;;26.53;;
29938;SDS011;16799;50.844;5.304;2022-12-18T02:17:15;69.37;;;28.40;;
29938;SDS011;16799;50.844;5.304;2022-12-18T02:28:18;61.07;;;26.23;;
29938;SDS011;16799;50.844;5.304;2022-12-18T02:30:47;65.40;;;27.67;;
29938;SDS011;16799;50.844;5.304;2022-12-18T02:33:16;69.00;;;26.17;;
29938;SDS011;16799;50.844;5.304;2022-12-18T02:35:45;73.30;;;25.53;;
29938;SDS011;16799;50.844;5.304;2022-12-18T02:38:13;59.37;;;25.67;;
29938;SDS011;16799;50.844;5.304;2022-12-18T02:40:40;63.43;;;28.60;;
29938;SDS011;16799;50.844;5.304;2022-12-18T02:43:11;62.33;;;27.97;;
29938;SDS011;16799;50.844;5.304;2022-12-18T02:45:46;61.07;;;25.83;;
29938;SDS011;16799;50.844;5.304;2022-12-18T02:48:17;54.87;;;27.13;;
29938;SDS011;16799;50.844;5.304;2022-12-18T02:51:30;59.00;;;24.37;;
29938;SDS011;16799;50.844;5.304;2022-12-18T02:53:50;68.37;;;26.40;;
29938;SDS011;16799;50.844;5.304;2022-12-18T02:56:26;57.97;;;25.87;;
29938;SDS011;16799;50.844;5.304;2022-12-18T02:58:59;66.17;;;26.73;;
29938;SDS011;16799;50.844;5.304;2022-12-18T03:04:25;64.50;;;22.93;;
29938;SDS011;16799;50.844;5.304;2022-12-18T03:07:11;52.83;;;23.70;;
29938;SDS011;16799;50.844;5.304;2022-12-18T03:09:44;70.10;;;25.30;;
29938;SDS011;16799;50.844;5.304;2022-12-18T03:15:00;65.93;;;24.87;;
29938;SDS011;16799;50.844;5.304;2022-12-18T03:17:30;58.00;;;24.77;;
29938;SDS011;16799;50.844;5.304;2022-12-18T03:19:58;53.63;;;25.27;;
29938;SDS011;16799;50.844;5.304;2022-12-18T03:22:30;53.53;;;23.67;;
29938;SDS011;16799;50.844;5.304;2022-12-18T03:24:58;59.40;;;24.90;;
29938;SDS011;16799;50.844;5.304;2022-12-18T03:27:27;47.27;;;23.30;;
29938;SDS011;16799;50.844;5.304;2022-12-18T03:30:01;54.37;;;21.57;;
29938;SDS011;16799;50.844;5.304;2022-12-18T03:32:33;54.77;;;24.27;;
29938;SDS011;16799;50.844;5.304;2022-12-18T03:35:05;50.60;;;25.00;;
29938;SDS011;16799;50.844;5.304;2022-12-18T03:37:33;68.60;;;27.57;;
29938;SDS011;16799;50.844;5.304;2022-12-18T03:39:59;50.03;;;23.50;;
29938;SDS011;16799;50.844;5.304;2022-12-18T03:42:40;48.80;;;23.23;;
29938;SDS011;16799;50.844;5.304;2022-12-18T03:48:42;53.10;;;22.53;;
29938;SDS011;16799;50.844;5.304;2022-12-18T03:51:18;55.77;;;21.77;;
29938;SDS011;16799;50.844;5.304;2022-12-18T03:54:10;62.13;;;23.73;;
29938;SDS011;16799;50.844;5.304;2022-12-18T03:56:42;56.70;;;21.47;;
29938;SDS011;16799;50.844;5.304;2022-12-18T03:59:12;46.03;;;21.77;;
29938;SDS011;16799;50.844;5.304;2022-12-18T04:01:42;43.50;;;22.13;;
29938;SDS011;16799;50.844;5.304;2022-12-18T04:04:14;51.37;;;22.00;;
29938;SDS011;16799;50.844;5.304;2022-12-18T04:06:41;58.70;;;23.17;;
29938;SDS011;16799;50.844;5.304;2022-12-18T04:09:10;40.23;;;20.53;;
29938;SDS011;16799;50.844;5.304;2022-12-18T04:11:35;53.50;;;23.03;;
29938;SDS011;16799;50.844;5.304;2022-12-18T04:14:01;50.13;;;24.67;;
29938;SDS011;16799;50.844;5.304;2022-12-18T04:16:27;58.60;;;22.93;;
29938;SDS011;16799;50.844;5.304;2022-12-18T04:18:53;42.23;;;19.33;;
29938;SDS011;16799;50.844;5.304;2022-12-18T04:21:19;40.50;;;21.07;;
29938;SDS011;16799;50.844;5.304;2022-12-18T04:23:45;35.90;;;19.97;;
29938;SDS011;16799;50.844;5.304;2022-12-18T04:26:11;52.07;;;19.97;;
29938;SDS011;16799;50.844;5.304;2022-12-18T04:28:37;53.23;;;23.33;;
29938;SDS011;16799;50.844;5.304;2022-12-18T04:31:02;50.43;;;24.57;;
29938;SDS011;16799;50.844;5.304;2022-12-18T04:33:28;53.30;;;23.37;;
29938;SDS011;16799;50.844;5.304;2022-12-18T04:35:54;49.30;;;22.40;;
29938;SDS011;16799;50.844;5.304;2022-12-18T04:38:20;45.90;;;20.93;;
29938;SDS011;16799;50.844;5.304;2022-12-18T04:40:45;62.07;;;22.67;;
29938;SDS011;16799;50.844;5.304;2022-12-18T04:43:11;47.53;;;21.57;;
29938;SDS011;16799;50.844;5.304;2022-12-18T04:45:37;38.37;;;20.30;;
29938;SDS011;16799;50.844;5.304;2022-12-18T04:48:03;44.40;;;22.63;;
29938;SDS011;16799;50.844;5.304;2022-12-18T04:50:29;45.20;;;20.57;;
29938;SDS011;16799;50.844;5.304;2022-12-18T04:52:56;50.23;;;21.80;;
29938;SDS011;16799;50.844;5.304;2022-12-18T04:55:22;52.80;;;22.07;;
29938;SDS011;16799;50.844;5.304;2022-12-18T04:57:47;47.60;;;20.37;;
29938;SDS011;16799;50.844;5.304;2022-12-18T05:00:13;35.27;;;18.43;;
29938;SDS011;16799;50.844;5.304;2022-12-18T05:02:39;46.37;;;20.60;;
29938;SDS011;16799;50.844;5.304;2022-12-18T05:05:06;46.53;;;21.53;;
29938;SDS011;16799;50.844;5.304;2022-12-18T05:07:32;44.57;;;21.00;;
29938;SDS011;16799;50.844;5.304;2022-12-18T05:09:58;43.73;;;22.17;;
29938;SDS011;16799;50.844;5.304;2022-12-18T05:12:23;63.90;;;22.57;;
29938;SDS011;16799;50.844;5.304;2022-12-18T05:14:49;44.70;;;21.37;;
29938;SDS011;16799;50.844;5.304;2022-12-18T05:17:15;35.57;;;19.63;;
29938;SDS011;16799;50.844;5.304;2022-12-18T05:19:41;48.43;;;19.50;;
29938;SDS011;16799;50.844;5.304;2022-12-18T05:22:06;56.30;;;22.27;;
29938;SDS011;16799;50.844;5.304;2022-12-18T05:24:32;45.07;;;20.13;;
29938;SDS011;16799;50.844;5.304;2022-12-18T05:26:58;35.33;;;19.20;;
29938;SDS011;16799;50.844;5.304;2022-12-18T05:29:24;44.83;;;19.13;;
29938;SDS011;16799;50.844;5.304;2022-12-18T05:31:50;36.57;;;17.70;;
29938;SDS011;16799;50.844;5.304;2022-12-18T05:34:15;43.80;;;18.90;;
29938;SDS011;16799;50.844;5.304;2022-12-18T05:36:41;47.10;;;17.20;;
29938;SDS011;16799;50.844;5.304;2022-12-18T05:39:07;33.47;;;18.40;;
29938;SDS011;16799;50.844;5.304;2022-12-18T05:41:34;45.33;;;20.13;;
29938;SDS011;16799;50.844;5.304;2022-12-18T05:43:59;41.10;;;21.60;;
29938;SDS011;16799;50.844;5.304;2022-12-18T05:46:25;38.37;;;18.57;;
29938;SDS011;16799;50.844;5.304;2022-12-18T05:48:51;44.50;;;20.80;;
29938;SDS011;16799;50.844;5.304;2022-12-18T05:51:18;63.67;;;19.93;;
29938;SDS011;16799;50.844;5.304;2022-12-18T05:53:45;44.97;;;20.73;;
29938;SDS011;16799;50.844;5.304;2022-12-18T05:56:17;45.80;;;18.77;;
29938;SDS011;16799;50.844;5.304;2022-12-18T05:58:44;43.53;;;18.53;;
29938;SDS011;16799;50.844;5.304;2022-12-18T06:01:15;44.07;;;19.10;;
29938;SDS011;16799;50.844;5.304;2022-12-18T06:03:43;30.90;;;16.53;;
29938;SDS011;16799;50.844;5.304;2022-12-18T06:06:20;45.57;;;19.63;;
29938;SDS011;16799;50.844;5.304;2022-12-18T06:08:47;49.57;;;19.53;;
29938;SDS011;16799;50.844;5.304;2022-12-18T06:11:16;33.73;;;15.93;;
29938;SDS011;16799;50.844;5.304;2022-12-18T06:13:43;27.80;;;16.53;;
29938;SDS011;16799;50.844;5.304;2022-12-18T06:16:09;37.73;;;18.53;;
29938;SDS011;16799;50.844;5.304;2022-12-18T06:18:38;32.97;;;14.40;;
29938;SDS011;16799;50.844;5.304;2022-12-18T06:21:03;45.77;;;17.93;;
29938;SDS011;16799;50.844;5.304;2022-12-18T06:23:29;38.30;;;18.33;;
29938;SDS011;16799;50.844;5.304;2022-12-18T06:25:55;34.53;;;17.20;;
29938;SDS011;16799;50.844;5.304;2022-12-18T06:28:21;33.07;;;17.30;;
29938;SDS011;16799;50.844;5.304;2022-12-18T06:30:47;28.20;;;16.10;;
29938;SDS011;16799;50.844;5.304;2022-12-18T06:33:13;42.10;;;15.40;;
29938;SDS011;16799;50.844;5.304;2022-12-18T06:35:39;38.07;;;16.63;;
29938;SDS011;16799;50.844;5.304;2022-12-18T06:38:05;26.90;;;13.70;;
29938;SDS011;16799;50.844;5.304;2022-12-18T06:40:31;51.37;;;16.00;;
29938;SDS011;16799;50.844;5.304;2022-12-18T06:42:57;39.27;;;19.07;;
29938;SDS011;16799;50.844;5.304;2022-12-18T06:45:23;36.10;;;18.90;;
29938;SDS011;16799;50.844;5.304;2022-12-18T06:47:49;44.60;;;16.60;;
29938;SDS011;16799;50.844;5.304;2022-12-18T06:50:15;50.93;;;20.50;;
29938;SDS011;16799;50.844;5.304;2022-12-18T06:52:41;32.00;;;19.07;;
29938;SDS011;16799;50.844;5.304;2022-12-18T06:55:08;39.33;;;18.37;;
29938;SDS011;16799;50.844;5.304;2022-12-18T06:57:35;41.83;;;18.03;;
29938;SDS011;16799;50.844;5.304;2022-12-18T07:00:01;31.03;;;16.20;;
29938;SDS011;16799;50.844;5.304;2022-12-18T07:02:29;30.97;;;16.33;;
29938;SDS011;16799;50.844;5.304;2022-12-18T07:04:54;40.90;;;18.60;;
29938;SDS011;16799;50.844;5.304;2022-12-18T07:07:20;34.80;;;17.33;;
29938;SDS011;16799;50.844;5.304;2022-12-18T07:09:46;29.53;;;16.63;;
29938;SDS011;16799;50.844;5.304;2022-12-18T07:12:11;27.77;;;16.60;;
29938;SDS011;16799;50.844;5.304;2022-12-18T07:14:37;33.73;;;15.90;;
29938;SDS011;16799;50.844;5.304;2022-12-18T07:17:03;40.50;;;16.50;;
29938;SDS011;16799;50.844;5.304;2022-12-18T07:19:29;38.13;;;17.10;;
29938;SDS011;16799;50.844;5.304;2022-12-18T07:21:55;34.00;;;15.33;;
29938;SDS011;16799;50.844;5.304;2022-12-18T07:24:20;28.80;;;16.73;;
29938;SDS011;16799;50.844;5.304;2022-12-18T07:26:46;34.80;;;15.70;;
29938;SDS011;16799;50.844;5.304;2022-12-18T07:29:12;42.40;;;19.37;;
29938;SDS011;16799;50.844;5.304;2022-12-18T07:31:38;46.47;;;17.57;;
29938;SDS011;16799;50.844;5.304;2022-12-18T07:34:03;35.37;;;17.93;;
29938;SDS011;16799;50.844;5.304;2022-12-18T07:36:29;42.87;;;16.40;;
29938;SDS011;16799;50.844;5.304;2022-12-18T07:38:55;27.83;;;17.07;;
29938;SDS011;16799;50.844;5.304;2022-12-18T07:41:21;48.47;;;22.30;;
29938;SDS011;16799;50.844;5.304;2022-12-18T07:43:47;43.07;;;21.80;;
29938;SDS011;16799;50.844;5.304;2022-12-18T07:46:13;54.13;;;21.03;;
29938;SDS011;16799;50.844;5.304;2022-12-18T07:48:41;60.53;;;26.73;;
29938;SDS011;16799;50.844;5.304;2022-12-18T07:51:07;52.37;;;26.13;;
29938;SDS011;16799;50.844;5.304;2022-12-18T07:53:33;62.47;;;25.70;;
29938;SDS011;16799;50.844;5.304;2022-12-18T07:56:01;55.83;;;22.17;;
29938;SDS011;16799;50.844;5.304;2022-12-18T07:58:29;44.30;;;20.80;;
29938;SDS011;16799;50.844;5.304;2022-12-18T08:01:02;35.17;;;15.70;;
29938;SDS011;16799;50.844;5.304;2022-12-18T08:03:32;31.20;;;17.23;;
29938;SDS011;16799;50.844;5.304;2022-12-18T08:05:58;36.20;;;18.17;;
29938;SDS011;16799;50.844;5.304;2022-12-18T08:08:25;35.13;;;17.83;;
29938;SDS011;16799;50.844;5.304;2022-12-18T08:10:50;37.07;;;17.13;;
29938;SDS011;16799;50.844;5.304;2022-12-18T08:13:16;33.43;;;15.67;;
29938;SDS011;16799;50.844;5.304;2022-12-18T08:15:42;22.80;;;15.30;;
29938;SDS011;16799;50.844;5.304;2022-12-18T08:18:07;30.53;;;16.53;;
29938;SDS011;16799;50.844;5.304;2022-12-18T08:20:33;32.27;;;16.20;;
29938;SDS011;16799;50.844;5.304;2022-12-18T08:22:58;26.90;;;15.83;;
29938;SDS011;16799;50.844;5.304;2022-12-18T08:25:24;29.23;;;14.67;;
29938;SDS011;16799;50.844;5.304;2022-12-18T08:27:50;29.63;;;15.20;;
29938;SDS011;16799;50.844;5.304;2022-12-18T08:30:15;28.53;;;13.57;;
29938;SDS011;16799;50.844;5.304;2022-12-18T08:32:41;32.00;;;17.53;;
29938;SDS011;16799;50.844;5.304;2022-12-18T08:35:07;33.53;;;14.23;;
29938;SDS011;16799;50.844;5.304;2022-12-18T08:37:33;32.03;;;15.90;;
29938;SDS011;16799;50.844;5.304;2022-12-18T08:39:59;25.00;;;14.53;;
29938;SDS011;16799;50.844;5.304;2022-12-18T08:42:25;24.50;;;13.90;;
29938;SDS011;16799;50.844;5.304;2022-12-18T08:45:09;24.33;;;13.23;;
29938;SDS011;16799;50.844;5.304;2022-12-18T08:47:35;32.50;;;16.83;;
29938;SDS011;16799;50.844;5.304;2022-12-18T08:50:01;30.20;;;16.20;;
29938;SDS011;16799;50.844;5.304;2022-12-18T08:52:26;30.70;;;18.50;;
29938;SDS011;16799;50.844;5.304;2022-12-18T08:54:53;22.80;;;14.60;;
29938;SDS011;16799;50.844;5.304;2022-12-18T08:57:18;36.33;;;17.30;;
29938;SDS011;16799;50.844;5.304;2022-12-18T08:59:44;26.83;;;14.23;;
29938;SDS011;16799;50.844;5.304;2022-12-18T09:02:10;25.47;;;15.27;;
29938;SDS011;16799;50.844;5.304;2022-12-18T09:04:36;21.33;;;15.37;;
29938;SDS011;16799;50.844;5.304;2022-12-18T09:07:02;24.57;;;15.27;;
29938;SDS011;16799;50.844;5.304;2022-12-18T09:09:27;26.70;;;13.87;;
29938;SDS011;16799;50.844;5.304;2022-12-18T09:11:53;23.80;;;14.67;;
29938;SDS011;16799;50.844;5.304;2022-12-18T09:14:19;25.83;;;15.70;;
29938;SDS011;16799;50.844;5.304;2022-12-18T09:16:45;23.83;;;12.67;;
29938;SDS011;16799;50.844;5.304;2022-12-18T09:19:10;22.10;;;15.10;;
29938;SDS011;16799;50.844;5.304;2022-12-18T09:21:36;22.03;;;13.47;;
29938;SDS011;16799;50.844;5.304;2022-12-18T09:24:02;26.17;;;14.40;;
29938;SDS011;16799;50.844;5.304;2022-12-18T09:26:29;23.53;;;13.13;;
29938;SDS011;16799;50.844;5.304;2022-12-18T09:28:55;23.27;;;13.77;;
29938;SDS011;16799;50.844;5.304;2022-12-18T09:31:21;23.47;;;14.00;;
29938;SDS011;16799;50.844;5.304;2022-12-18T09:33:47;20.30;;;12.80;;
29938;SDS011;16799;50.844;5.304;2022-12-18T09:36:14;21.47;;;13.80;;
29938;SDS011;16799;50.844;5.304;2022-12-18T09:38:41;16.33;;;12.90;;
29938;SDS011;16799;50.844;5.304;2022-12-18T09:43:51;25.50;;;13.33;;
29938;SDS011;16799;50.844;5.304;2022-12-18T09:46:23;22.43;;;13.17;;
29938;SDS011;16799;50.844;5.304;2022-12-18T09:48:54;28.03;;;13.33;;
29938;SDS011;16799;50.844;5.304;2022-12-18T09:51:27;21.37;;;13.80;;
29938;SDS011;16799;50.844;5.304;2022-12-18T09:53:58;20.63;;;12.90;;
29938;SDS011;16799;50.844;5.304;2022-12-18T09:56:31;18.07;;;13.17;;
29938;SDS011;16799;50.844;5.304;2022-12-18T09:59:03;19.83;;;17.27;;
29938;SDS011;16799;50.844;5.304;2022-12-18T10:01:30;20.40;;;15.27;;
29938;SDS011;16799;50.844;5.304;2022-12-18T10:03:57;26.97;;;15.07;;
29938;SDS011;16799;50.844;5.304;2022-12-18T10:06:26;36.00;;;17.20;;
29938;SDS011;16799;50.844;5.304;2022-12-18T10:09:28;25.83;;;16.60;;
29938;SDS011;16799;50.844;5.304;2022-12-18T10:12:08;23.10;;;14.70;;
29938;SDS011;16799;50.844;5.304;2022-12-18T10:19:51;28.43;;;17.47;;
29938;SDS011;16799;50.844;5.304;2022-12-18T10:27:51;20.73;;;14.40;;
29938;SDS011;16799;50.844;5.304;2022-12-18T10:30:22;23.40;;;15.23;;
29938;SDS011;16799;50.844;5.304;2022-12-18T10:32:48;22.20;;;14.00;;
29938;SDS011;16799;50.844;5.304;2022-12-18T10:35:24;24.20;;;14.33;;
29938;SDS011;16799;50.844;5.304;2022-12-18T10:40:55;35.83;;;16.90;;
29938;SDS011;16799;50.844;5.304;2022-12-18T10:43:27;33.87;;;13.53;;
29938;SDS011;16799;50.844;5.304;2022-12-18T10:46:05;20.17;;;14.10;;
29938;SDS011;16799;50.844;5.304;2022-12-18T10:51:24;24.37;;;15.07;;
29938;SDS011;16799;50.844;5.304;2022-12-18T10:54:12;24.20;;;13.90;;
29938;SDS011;16799;50.844;5.304;2022-12-18T10:56:41;22.87;;;14.30;;
29938;SDS011;16799;50.844;5.304;2022-12-18T10:59:09;19.07;;;12.60;;
29938;SDS011;16799;50.844;5.304;2022-12-18T11:04:27;25.97;;;13.93;;
29938;SDS011;16799;50.844;5.304;2022-12-18T11:06:58;25.73;;;15.23;;
29938;SDS011;16799;50.844;5.304;2022-12-18T11:09:29;18.90;;;13.20;;
29938;SDS011;16799;50.844;5.304;2022-12-18T11:12:00;21.50;;;13.70;;
29938;SDS011;16799;50.844;5.304;2022-12-18T11:14:50;21.20;;;14.03;;
29938;SDS011;16799;50.844;5.304;2022-12-18T11:19:58;25.70;;;15.10;;
29938;SDS011;16799;50.844;5.304;2022-12-18T11:22:33;19.50;;;12.83;;
29938;SDS011;16799;50.844;5.304;2022-12-18T11:25:22;19.27;;;13.60;;
29938;SDS011;16799;50.844;5.304;2022-12-18T11:27:51;22.30;;;13.77;;
29938;SDS011;16799;50.844;5.304;2022-12-18T11:32:45;25.67;;;14.50;;
29938;SDS011;16799;50.844;5.304;2022-12-18T11:35:16;17.53;;;13.20;;
29938;SDS011;16799;50.844;5.304;2022-12-18T11:37:53;21.30;;;13.47;;
29938;SDS011;16799;50.844;5.304;2022-12-18T11:40:30;19.00;;;14.00;;
29938;SDS011;16799;50.844;5.304;2022-12-18T11:43:10;22.03;;;13.90;;
29938;SDS011;16799;50.844;5.304;2022-12-18T11:45:52;21.93;;;15.00;;
29938;SDS011;16799;50.844;5.304;2022-12-18T11:48:25;29.23;;;14.40;;
29938;SDS011;16799;50.844;5.304;2022-12-18T11:50:57;23.97;;;13.30;;
29938;SDS011;16799;50.844;5.304;2022-12-18T11:53:26;27.50;;;16.30;;
29938;SDS011;16799;50.844;5.304;2022-12-18T11:58:57;24.13;;;15.50;;
29938;SDS011;16799;50.844;5.304;2022-12-18T12:01:59;29.03;;;15.83;;
29938;SDS011;16799;50.844;5.304;2022-12-18T12:05:05;26.23;;;14.27;;
29938;SDS011;16799;50.844;5.304;2022-12-18T12:13:49;31.20;;;16.03;;
29938;SDS011;16799;50.844;5.304;2022-12-18T12:19:45;25.63;;;14.37;;
29938;SDS011;16799;50.844;5.304;2022-12-18T12:35:24;24.20;;;16.00;;
29938;SDS011;16799;50.844;5.304;2022-12-18T12:40:45;29.10;;;16.70;;
29938;SDS011;16799;50.844;5.304;2022-12-18T12:43:30;22.83;;;16.40;;
29938;SDS011;16799;50.844;5.304;2022-12-18T12:49:04;23.17;;;15.30;;
29938;SDS011;16799;50.844;5.304;2022-12-18T12:51:38;25.43;;;16.53;;
29938;SDS011;16799;50.844;5.304;2022-12-18T12:54:10;29.27;;;18.73;;
29938;SDS011;16799;50.844;5.304;2022-12-18T12:59:34;22.80;;;15.87;;
29938;SDS011;16799;50.844;5.304;2022-12-18T13:04:46;33.50;;;18.20;;
29938;SDS011;16799;50.844;5.304;2022-12-18T13:15:33;27.83;;;14.93;;
29938;SDS011;16799;50.844;5.304;2022-12-18T13:18:04;24.20;;;15.40;;
29938;SDS011;16799;50.844;5.304;2022-12-18T13:20:37;20.83;;;14.10;;
29938;SDS011;16799;50.844;5.304;2022-12-18T13:25:58;26.73;;;15.03;;
29938;SDS011;16799;50.844;5.304;2022-12-18T13:34:21;24.83;;;16.07;;
29938;SDS011;16799;50.844;5.304;2022-12-18T13:36:47;30.43;;;16.30;;
29938;SDS011;16799;50.844;5.304;2022-12-18T13:41:40;31.90;;;19.10;;
29938;SDS011;16799;50.844;5.304;2022-12-18T13:46:53;26.00;;;17.47;;
29938;SDS011;16799;50.844;5.304;2022-12-18T13:49:36;31.57;;;18.70;;
29938;SDS011;16799;50.844;5.304;2022-12-18T13:52:27;35.77;;;18.70;;
29938;SDS011;16799;50.844;5.304;2022-12-18T13:54:58;29.30;;;17.20;;
29938;SDS011;16799;50.844;5.304;2022-12-18T13:57:33;33.57;;;17.83;;
29938;SDS011;16799;50.844;5.304;2022-12-18T14:02:46;25.57;;;16.87;;
29938;SDS011;16799;50.844;5.304;2022-12-18T14:07:51;29.83;;;14.03;;
29938;SDS011;16799;50.844;5.304;2022-12-18T14:10:18;21.47;;;12.30;;
29938;SDS011;16799;50.844;5.304;2022-12-18T14:12:47;19.90;;;13.30;;
29938;SDS011;16799;50.844;5.304;2022-12-18T14:17:49;20.63;;;13.10;;
29938;SDS011;16799;50.844;5.304;2022-12-18T14:20:15;17.60;;;12.23;;
29938;SDS011;16799;50.844;5.304;2022-12-18T14:22:43;18.80;;;11.87;;
29938;SDS011;16799;50.844;5.304;2022-12-18T14:27:44;24.20;;;12.17;;
29938;SDS011;16799;50.844;5.304;2022-12-18T14:30:27;24.97;;;12.87;;
29938;SDS011;16799;50.844;5.304;2022-12-18T14:35:34;15.87;;;11.77;;
29938;SDS011;16799;50.844;5.304;2022-12-18T14:40:54;23.83;;;12.80;;
29938;SDS011;16799;50.844;5.304;2022-12-18T14:43:28;20.60;;;14.10;;
29938;SDS011;16799;50.844;5.304;2022-12-18T14:45:56;21.83;;;13.77;;
29938;SDS011;16799;50.844;5.304;2022-12-18T14:51:01;25.23;;;14.87;;
29938;SDS011;16799;50.844;5.304;2022-12-18T14:53:38;26.33;;;15.50;;
29938;SDS011;16799;50.844;5.304;2022-12-18T14:56:13;22.90;;;15.50;;
29938;SDS011;16799;50.844;5.304;2022-12-18T14:58:43;19.13;;;12.87;;
29938;SDS011;16799;50.844;5.304;2022-12-18T15:01:20;35.17;;;14.80;;
29938;SDS011;16799;50.844;5.304;2022-12-18T15:03:49;23.93;;;14.47;;
29938;SDS011;16799;50.844;5.304;2022-12-18T15:06:27;20.87;;;13.13;;
29938;SDS011;16799;50.844;5.304;2022-12-18T15:08:57;27.63;;;14.87;;
29938;SDS011;16799;50.844;5.304;2022-12-18T15:14:28;23.43;;;14.20;;
29938;SDS011;16799;50.844;5.304;2022-12-18T15:16:59;36.57;;;16.70;;
29938;SDS011;16799;50.844;5.304;2022-12-18T15:22:20;37.60;;;16.40;;
29938;SDS011;16799;50.844;5.304;2022-12-18T15:24:53;30.63;;;15.70;;
29938;SDS011;16799;50.844;5.304;2022-12-18T15:27:21;28.17;;;16.47;;
29938;SDS011;16799;50.844;5.304;2022-12-18T15:32:33;27.03;;;14.87;;
29938;SDS011;16799;50.844;5.304;2022-12-18T15:37:34;25.00;;;15.07;;
29938;SDS011;16799;50.844;5.304;2022-12-18T15:39:59;30.43;;;17.13;;
29938;SDS011;16799;50.844;5.304;2022-12-18T15:42:27;27.47;;;15.50;;
29938;SDS011;16799;50.844;5.304;2022-12-18T15:45:12;24.83;;;14.03;;
29938;SDS011;16799;50.844;5.304;2022-12-18T15:47:38;23.33;;;15.37;;
29938;SDS011;16799;50.844;5.304;2022-12-18T15:50:04;27.03;;;14.97;;
29938;SDS011;16799;50.844;5.304;2022-12-18T15:52:32;28.43;;;15.73;;
29938;SDS011;16799;50.844;5.304;2022-12-18T15:55:10;28.40;;;16.07;;
29938;SDS011;16799;50.844;5.304;2022-12-18T15:57:58;35.67;;;20.10;;
29938;SDS011;16799;50.844;5.304;2022-12-18T16:00:24;27.53;;;15.67;;
29938;SDS011;16799;50.844;5.304;2022-12-18T16:02:49;25.47;;;14.70;;
29938;SDS011;16799;50.844;5.304;2022-12-18T16:05:16;23.57;;;15.07;;
29938;SDS011;16799;50.844;5.304;2022-12-18T16:07:43;23.27;;;15.10;;
29938;SDS011;16799;50.844;5.304;2022-12-18T16:10:09;28.20;;;17.70;;
29938;SDS011;16799;50.844;5.304;2022-12-18T16:12:35;28.83;;;16.33;;
29938;SDS011;16799;50.844;5.304;2022-12-18T16:15:01;26.20;;;16.40;;
29938;SDS011;16799;50.844;5.304;2022-12-18T16:17:27;28.90;;;15.37;;
29938;SDS011;16799;50.844;5.304;2022-12-18T16:19:53;22.17;;;13.63;;
29938;SDS011;16799;50.844;5.304;2022-12-18T16:22:25;31.57;;;15.73;;
29938;SDS011;16799;50.844;5.304;2022-12-18T16:24:53;31.83;;;16.50;;
29938;SDS011;16799;50.844;5.304;2022-12-18T16:27:20;25.40;;;13.97;;
29938;SDS011;16799;50.844;5.304;2022-12-18T16:29:46;32.40;;;16.20;;
29938;SDS011;16799;50.844;5.304;2022-12-18T16:32:17;23.80;;;15.40;;
29938;SDS011;16799;50.844;5.304;2022-12-18T16:34:44;26.07;;;14.67;;
29938;SDS011;16799;50.844;5.304;2022-12-18T16:37:11;26.37;;;13.47;;
29938;SDS011;16799;50.844;5.304;2022-12-18T16:39:38;30.70;;;16.30;;
29938;SDS011;16799;50.844;5.304;2022-12-18T16:42:10;28.00;;;16.70;;
29938;SDS011;16799;50.844;5.304;2022-12-18T16:44:39;34.27;;;14.97;;
29938;SDS011;16799;50.844;5.304;2022-12-18T16:47:05;32.33;;;16.27;;
29938;SDS011;16799;50.844;5.304;2022-12-18T16:49:31;26.60;;;16.43;;
29938;SDS011;16799;50.844;5.304;2022-12-18T16:51:57;32.80;;;16.67;;